Time;durP1;ratioP1;P1;durP2;ratioP2;P2;SDS_P1;SDS_P2;PMS_P1;PMS_P2;Temp;Humidity;BMP_temperature;BMP_pressure;BME280_temperature;BME280_humidity;BME280_pressure;Samples;Min_cycle;Max_cycle;Signal;HPM_P1;HPM_P2
2023/08/17 00:01:06;;;;;;;0.00;0.00;;;;;;;;;;6268438;28;20028;-74
2023/08/17 00:04:07;;;;;;;0.00;0.00;;;;;;;;;;6266810;28;20154;-74
2023/08/17 00:07:07;;;;;;;0.00;0.00;;;;;;;;;;6266726;28;20025;-74
2023/08/17 00:10:08;;;;;;;0.00;0.00;;;;;;;;;;6249482;28;20025;-74
2023/08/17 00:13:08;;;;;;;0.00;0.00;;;;;;;;;;6267455;28;20045;-74
2023/08/17 00:16:08;;;;;;;0.00;0.00;;;;;;;;;;6266802;28;20017;-74
2023/08/17 00:19:08;;;;;;;0.00;0.00;;;;;;;;;;6264953;28;20537;-74
2023/08/17 00:22:09;;;;;;;0.00;0.00;;;;;;;;;;6266590;28;20028;-74
2023/08/17 00:25:09;;;;;;;0.00;0.00;;;;;;;;;;6267260;28;20483;-75
2023/08/17 00:28:09;;;;;;;0.00;0.00;;;;;;;;;;6267808;28;20017;-75
2023/08/17 00:31:09;;;;;;;0.00;0.00;;;;;;;;;;6267452;28;20021;-75
2023/08/17 00:34:09;;;;;;;0.00;0.00;;;;;;;;;;6262729;28;20380;-75
2023/08/17 00:37:10;;;;;;;0.00;0.00;;;;;;;;;;6248234;28;20497;-74
2023/08/17 00:40:10;;;;;;;0.00;0.00;;;;;;;;;;6266752;28;20388;-75
2023/08/17 00:43:10;;;;;;;0.00;0.00;;;;;;;;;;6265600;28;20059;-75
2023/08/17 00:46:11;;;;;;;0.00;0.00;;;;;;;;;;6265918;28;20023;-74
2023/08/17 00:49:11;;;;;;;0.00;0.00;;;;;;;;;;6266409;28;20144;-75
2023/08/17 00:52:12;;;;;;;0.00;0.00;;;;;;;;;;6266768;28;20487;-75
2023/08/17 00:55:12;;;;;;;0.00;0.00;;;;;;;;;;6269583;28;20021;-74
2023/08/17 00:58:13;;;;;;;0.00;0.00;;;;;;;;;;6271030;28;20091;-87
2023/08/17 01:01:14;;;;;;;0.00;0.00;;;;;;;;;;6272562;28;20100;-87
2023/08/17 01:04:14;;;;;;;0.00;0.00;;;;;;;;;;6269083;28;20025;-88
2023/08/17 01:07:14;;;;;;;0.00;0.00;;;;;;;;;;6271064;28;20410;-88
2023/08/17 01:10:14;;;;;;;0.00;0.00;;;;;;;;;;6270833;28;20558;-88
2023/08/17 01:13:17;;;;;;;0.00;0.00;;;;;;;;;;6270535;28;20065;-87
2023/08/17 01:16:25;;;;;;;0.00;0.00;;;;;;;;;;6272588;28;20505;-87
2023/08/17 01:19:28;;;;;;;0.00;0.00;;;;;;;;;;6278532;28;20028;-87
2023/08/17 01:22:30;;;;;;;0.00;0.00;;;;;;;;;;6284200;28;20032;-87
2023/08/17 01:25:30;;;;;;;0.00;0.00;;;;;;;;;;6283465;28;20020;-88
2023/08/17 01:28:30;;;;;;;0.00;0.00;;;;;;;;;;6283003;28;20021;-88
2023/08/17 01:31:35;;;;;;;0.00;0.00;;;;;;;;;;6281671;28;20029;-87
2023/08/17 01:34:40;;;;;;;0.10;0.10;;;;;;;;;;6281882;28;20047;-88
2023/08/17 01:37:41;;;;;;;0.00;0.00;;;;;;;;;;6284072;28;20104;-88
2023/08/17 01:40:42;;;;;;;0.00;0.00;;;;;;;;;;6268651;28;20074;-89
2023/08/17 01:43:45;;;;;;;0.00;0.00;;;;;;;;;;6269106;28;20024;-89
2023/08/17 01:46:45;;;;;;;0.00;0.00;;;;;;;;;;6286310;28;20032;-88
2023/08/17 01:49:46;;;;;;;0.00;0.00;;;;;;;;;;6265497;28;20040;-90
2023/08/17 01:52:47;;;;;;;0.00;0.00;;;;;;;;;;6281752;28;20068;-89
2023/08/17 01:55:47;;;;;;;0.00;0.00;;;;;;;;;;6268118;28;20038;-88
2023/08/17 01:58:47;;;;;;;0.00;0.00;;;;;;;;;;6255021;28;20551;-88
2023/08/17 02:01:48;;;;;;;0.00;0.00;;;;;;;;;;6273108;28;20009;-88
2023/08/17 02:04:48;;;;;;;0.00;0.00;;;;;;;;;;6266663;28;20025;-89
2023/08/17 02:07:48;;;;;;;0.00;0.00;;;;;;;;;;6270259;28;20031;-90
2023/08/17 02:10:48;;;;;;;0.00;0.00;;;;;;;;;;6270149;28;20021;-89
2023/08/17 02:13:49;;;;;;;0.00;0.00;;;;;;;;;;6268726;28;20024;-89
2023/08/17 02:16:49;;;;;;;0.00;0.00;;;;;;;;;;6269503;28;20068;-89
2023/08/17 02:19:49;;;;;;;0.00;0.00;;;;;;;;;;6270169;28;20039;-88
2023/08/17 02:22:49;;;;;;;0.00;0.00;;;;;;;;;;6269382;28;20521;-89
2023/08/17 02:25:49;;;;;;;0.00;0.00;;;;;;;;;;6257824;28;20155;-89
2023/08/17 02:28:50;;;;;;;0.00;0.00;;;;;;;;;;6270164;28;20013;-89
2023/08/17 02:31:50;;;;;;;0.00;0.00;;;;;;;;;;6270288;28;20478;-87
2023/08/17 02:34:50;;;;;;;0.00;0.00;;;;;;;;;;6251182;28;20033;-87
2023/08/17 02:37:50;;;;;;;0.00;0.00;;;;;;;;;;6274370;28;20484;-86
2023/08/17 02:40:50;;;;;;;0.00;0.00;;;;;;;;;;6269026;28;20567;-85
2023/08/17 02:43:51;;;;;;;0.00;0.00;;;;;;;;;;6268837;28;20063;-86
2023/08/17 02:46:51;;;;;;;0.00;0.00;;;;;;;;;;6268627;28;20020;-86
2023/08/17 02:49:51;;;;;;;0.00;0.00;;;;;;;;;;6268688;28;20033;-85
2023/08/17 02:52:51;;;;;;;0.00;0.00;;;;;;;;;;6269048;28;20029;-85
2023/08/17 02:55:52;;;;;;;0.00;0.00;;;;;;;;;;6262675;28;20829;-85
2023/08/17 02:58:52;;;;;;;0.00;0.00;;;;;;;;;;6271329;28;20455;-86
2023/08/17 03:01:53;;;;;;;0.00;0.00;;;;;;;;;;6300134;28;20304;-86
2023/08/17 03:04:53;;;;;;;0.00;0.00;;;;;;;;;;6251836;28;20116;-86
2023/08/17 03:07:53;;;;;;;0.00;0.00;;;;;;;;;;6268021;28;20027;-87
2023/08/17 03:10:54;;;;;;;0.00;0.00;;;;;;;;;;6267879;28;20025;-86
2023/08/17 03:13:59;;;;;;;0.00;0.00;;;;;;;;;;6267760;28;20434;-86
2023/08/17 03:16:59;;;;;;;0.00;0.00;;;;;;;;;;6262006;28;20352;-87
2023/08/17 03:20:00;;;;;;;0.00;0.00;;;;;;;;;;6267499;28;20050;-87
2023/08/17 03:23:00;;;;;;;0.00;0.00;;;;;;;;;;6267850;28;20028;-87
2023/08/17 03:26:00;;;;;;;0.00;0.00;;;;;;;;;;6267418;28;20424;-87
2023/08/17 03:29:00;;;;;;;0.00;0.00;;;;;;;;;;6267685;28;20020;-87
2023/08/17 03:32:01;;;;;;;0.10;0.10;;;;;;;;;;6272275;28;20017;-87
2023/08/17 03:35:01;;;;;;;0.00;0.00;;;;;;;;;;6278265;28;20025;-86
2023/08/17 03:38:01;;;;;;;0.00;0.00;;;;;;;;;;6269018;28;20028;-86
2023/08/17 03:41:01;;;;;;;0.00;0.00;;;;;;;;;;6267692;28;20031;-87
2023/08/17 03:44:02;;;;;;;0.00;0.00;;;;;;;;;;6267316;28;20017;-86
2023/08/17 03:47:02;;;;;;;0.00;0.00;;;;;;;;;;6270156;28;20659;-87
2023/08/17 03:50:03;;;;;;;0.00;0.00;;;;;;;;;;6276284;28;20047;-87
2023/08/17 03:53:03;;;;;;;0.00;0.00;;;;;;;;;;6267411;28;20017;-87
2023/08/17 03:56:03;;;;;;;0.00;0.00;;;;;;;;;;6266938;28;20036;-87
2023/08/17 03:59:04;;;;;;;0.00;0.00;;;;;;;;;;6271721;28;20032;-86
2023/08/17 04:02:04;;;;;;;0.00;0.00;;;;;;;;;;6276989;28;20101;-87
2023/08/17 04:05:04;;;;;;;0.07;0.07;;;;;;;;;;6251877;28;20032;-88
2023/08/17 04:08:05;;;;;;;0.00;0.00;;;;;;;;;;6265864;28;20108;-87
2023/08/17 04:11:05;;;;;;;0.00;0.00;;;;;;;;;;6269273;28;20111;-88
2023/08/17 04:14:05;;;;;;;0.00;0.00;;;;;;;;;;6268412;28;20032;-88
2023/08/17 04:17:06;;;;;;;0.00;0.00;;;;;;;;;;6272277;28;20112;-89
2023/08/17 04:20:06;;;;;;;0.00;0.00;;;;;;;;;;6263538;28;20082;-88
2023/08/17 04:23:06;;;;;;;0.00;0.00;;;;;;;;;;6266790;28;20060;-88
2023/08/17 04:26:07;;;;;;;0.00;0.00;;;;;;;;;;6266833;28;20426;-88
2023/08/17 04:29:07;;;;;;;0.00;0.00;;;;;;;;;;6272956;28;20589;-87
2023/08/17 04:32:07;;;;;;;0.00;0.00;;;;;;;;;;6276225;28;20029;-86
2023/08/17 04:35:07;;;;;;;0.00;0.00;;;;;;;;;;6270686;28;20395;-87
2023/08/17 04:38:08;;;;;;;0.00;0.00;;;;;;;;;;6269311;28;20029;-86
2023/08/17 04:41:08;;;;;;;0.00;0.00;;;;;;;;;;6271991;28;20048;-87
2023/08/17 04:44:08;;;;;;;0.00;0.00;;;;;;;;;;6269780;28;20035;-86
2023/08/17 04:47:09;;;;;;;0.00;0.00;;;;;;;;;;6271448;28;20388;-87
2023/08/17 04:50:09;;;;;;;0.00;0.00;;;;;;;;;;6272145;28;20518;-87
2023/08/17 04:53:09;;;;;;;0.00;0.00;;;;;;;;;;6273304;28;20063;-87
2023/08/17 04:56:09;;;;;;;0.00;0.00;;;;;;;;;;6270775;28;20021;-88
2023/08/17 04:59:11;;;;;;;0.00;0.00;;;;;;;;;;6271023;28;20017;-88
2023/08/17 05:02:11;;;;;;;0.00;0.00;;;;;;;;;;6265941;28;20055;-87
2023/08/17 05:05:12;;;;;;;0.00;0.00;;;;;;;;;;6253417;28;20491;-88
2023/08/17 05:08:13;;;;;;;0.00;0.00;;;;;;;;;;6271190;28;20725;-88
2023/08/17 05:11:14;;;;;;;0.00;0.00;;;;;;;;;;6252614;28;20267;-88
2023/08/17 05:14:14;;;;;;;0.00;0.00;;;;;;;;;;6271267;28;20395;-88
2023/08/17 05:17:14;;;;;;;0.00;0.00;;;;;;;;;;6278347;28;20112;-88
2023/08/17 05:20:15;;;;;;;0.00;0.00;;;;;;;;;;6278072;28;20028;-87
2023/08/17 05:23:15;;;;;;;0.00;0.00;;;;;;;;;;6277175;28;20123;-89
2023/08/17 05:26:15;;;;;;;0.00;0.00;;;;;;;;;;6275795;28;20487;-89
2023/08/17 05:29:16;;;;;;;0.00;0.00;;;;;;;;;;6277483;28;20028;-88
2023/08/17 05:32:16;;;;;;;0.00;0.00;;;;;;;;;;6272000;28;20452;-85
2023/08/17 05:35:18;;;;;;;0.00;0.00;;;;;;;;;;6271558;28;20086;-85
2023/08/17 05:38:18;;;;;;;0.00;0.00;;;;;;;;;;6275543;28;20037;-87
2023/08/17 05:41:18;;;;;;;0.00;0.00;;;;;;;;;;6274639;28;20029;-87
2023/08/17 05:44:19;;;;;;;0.00;0.00;;;;;;;;;;6273358;28;20194;-87
2023/08/17 05:47:19;;;;;;;0.00;0.00;;;;;;;;;;6271258;28;20028;-87
2023/08/17 05:50:21;;;;;;;0.00;0.00;;;;;;;;;;6256634;28;20499;-86
2023/08/17 05:53:22;;;;;;;0.00;0.00;;;;;;;;;;6266997;28;20545;-87
2023/08/17 05:56:22;;;;;;;0.00;0.00;;;;;;;;;;6251555;28;20017;-86
2023/08/17 05:59:24;;;;;;;0.00;0.00;;;;;;;;;;6269437;28;20104;-87
2023/08/17 06:02:24;;;;;;;;;;;;;;;;;;6248708;28;20025;-88
2023/08/17 06:05:26;;;;;;;0.00;0.00;;;;;;;;;;6277780;28;19921;-88
2023/08/17 06:08:26;;;;;;;0.00;0.00;;;;;;;;;;6273706;28;20029;-88
2023/08/17 06:11:27;;;;;;;0.00;0.00;;;;;;;;;;6258024;28;20476;-89
2023/08/17 06:14:28;;;;;;;0.00;0.00;;;;;;;;;;6281316;28;20033;-89
2023/08/17 06:17:28;;;;;;;0.00;0.00;;;;;;;;;;6275837;28;20025;-88
2023/08/17 06:20:29;;;;;;;0.00;0.00;;;;;;;;;;6269359;28;20033;-88
2023/08/17 06:23:29;;;;;;;0.00;0.00;;;;;;;;;;6267430;28;20021;-88
2023/08/17 06:26:29;;;;;;;0.00;0.00;;;;;;;;;;6270904;28;20025;-89
2023/08/17 06:29:29;;;;;;;0.00;0.00;;;;;;;;;;6270683;28;20033;-88
2023/08/17 06:32:30;;;;;;;0.00;0.00;;;;;;;;;;6248790;28;20116;-89
2023/08/17 06:35:30;;;;;;;0.00;0.00;;;;;;;;;;6272103;28;20040;-88
2023/08/17 06:38:30;;;;;;;0.00;0.00;;;;;;;;;;6272854;28;20044;-88
2023/08/17 06:41:31;;;;;;;0.00;0.00;;;;;;;;;;6272683;28;20074;-88
2023/08/17 06:44:31;;;;;;;0.00;0.00;;;;;;;;;;6270259;28;20021;-89
2023/08/17 06:47:31;;;;;;;0.00;0.00;;;;;;;;;;6276322;28;20547;-89
2023/08/17 06:50:31;;;;;;;0.00;0.00;;;;;;;;;;6253968;28;20033;-89
2023/08/17 06:53:32;;;;;;;0.00;0.00;;;;;;;;;;6262344;28;20037;-89
2023/08/17 06:56:33;;;;;;;;;;;;;;;;;;6266699;28;20044;-89
2023/08/17 06:59:34;;;;;;;0.00;0.00;;;;;;;;;;6268845;28;20394;-89
2023/08/17 07:02:34;;;;;;;0.00;0.00;;;;;;;;;;6270648;28;20025;-89
2023/08/17 07:05:34;;;;;;;0.00;0.00;;;;;;;;;;6267609;28;20131;-89
2023/08/17 07:08:34;;;;;;;0.00;0.00;;;;;;;;;;6264694;28;20067;-90
2023/08/17 07:11:34;;;;;;;0.00;0.00;;;;;;;;;;6250691;28;20166;-91
2023/08/17 07:14:35;;;;;;;0.00;0.00;;;;;;;;;;6262204;28;20029;-90
2023/08/17 07:17:36;;;;;;;0.00;0.00;;;;;;;;;;6269861;28;20100;-90
2023/08/17 07:20:36;;;;;;;;;;;;;;;;;;6269167;28;20020;-88
2023/08/17 07:23:37;;;;;;;0.00;0.00;;;;;;;;;;6267840;28;20003;-88
2023/08/17 07:26:37;;;;;;;0.00;0.00;;;;;;;;;;6267638;28;20060;-88
2023/08/17 07:29:37;;;;;;;0.00;0.00;;;;;;;;;;6268553;28;20471;-89
2023/08/17 07:32:37;;;;;;;0.00;0.00;;;;;;;;;;6250850;28;20036;-88
2023/08/17 07:35:37;;;;;;;0.00;0.00;;;;;;;;;;6295524;28;20088;-90
2023/08/17 07:38:38;;;;;;;0.00;0.00;;;;;;;;;;6310259;28;20031;-89
2023/08/17 07:41:38;;;;;;;0.00;0.00;;;;;;;;;;6298681;28;20021;-89
2023/08/17 07:44:39;;;;;;;0.00;0.00;;;;;;;;;;6299035;28;20039;-91
2023/08/17 07:47:39;;;;;;;0.00;0.00;;;;;;;;;;6289115;28;20018;-91
2023/08/17 07:50:39;;;;;;;0.00;0.00;;;;;;;;;;6248483;28;20060;-90
2023/08/17 07:53:40;;;;;;;0.00;0.00;;;;;;;;;;6270969;28;20025;-90
2023/08/17 07:56:40;;;;;;;0.00;0.00;;;;;;;;;;6268894;28;20025;-89
2023/08/17 07:59:40;;;;;;;0.00;0.00;;;;;;;;;;6266874;28;20029;-89
2023/08/17 08:02:40;;;;;;;0.00;0.00;;;;;;;;;;6269438;28;20029;-89
2023/08/17 08:05:40;;;;;;;0.00;0.00;;;;;;;;;;6266402;28;20048;-89
2023/08/17 08:08:41;;;;;;;;;;;;;;;;;;6268906;28;20021;-89
2023/08/17 08:11:41;;;;;;;0.00;0.00;;;;;;;;;;6268364;28;19962;-88
2023/08/17 08:14:41;;;;;;;0.00;0.00;;;;;;;;;;6267767;28;20028;-88
2023/08/17 08:17:41;;;;;;;0.00;0.00;;;;;;;;;;6267424;28;20467;-88
2023/08/17 08:20:41;;;;;;;0.00;0.00;;;;;;;;;;6265241;28;20342;-88
2023/08/17 08:23:43;;;;;;;0.00;0.00;;;;;;;;;;6267927;28;20760;-88
2023/08/17 08:26:43;;;;;;;0.00;0.00;;;;;;;;;;6272052;28;20041;-88
2023/08/17 08:29:43;;;;;;;0.00;0.00;;;;;;;;;;6267611;28;20071;-88
2023/08/17 08:32:43;;;;;;;0.00;0.00;;;;;;;;;;6268153;28;20017;-88
2023/08/17 08:35:44;;;;;;;0.00;0.00;;;;;;;;;;6268625;28;20132;-87
2023/08/17 08:38:44;;;;;;;0.00;0.00;;;;;;;;;;6264880;28;20013;-87
2023/08/17 08:41:44;;;;;;;0.00;0.00;;;;;;;;;;6266895;28;20017;-88
2023/08/17 08:44:45;;;;;;;0.00;0.00;;;;;;;;;;6266274;28;20032;-88
2023/08/17 08:47:46;;;;;;;0.00;0.00;;;;;;;;;;6272435;28;20024;-88
2023/08/17 08:50:49;;;;;;;0.00;0.00;;;;;;;;;;6275195;28;20670;-88
2023/08/17 08:53:53;;;;;;;0.00;0.00;;;;;;;;;;6267380;28;20033;-88
2023/08/17 08:56:59;;;;;;;0.00;0.00;;;;;;;;;;6269457;28;20032;-88
2023/08/17 08:59:59;;;;;;;0.00;0.00;;;;;;;;;;6271174;28;20035;-87
2023/08/17 09:03:01;;;;;;;0.00;0.00;;;;;;;;;;6269189;28;20033;-88
2023/08/17 09:06:04;;;;;;;0.00;0.00;;;;;;;;;;6267156;28;20048;-88
2023/08/17 09:09:05;;;;;;;0.00;0.00;;;;;;;;;;6265631;28;20041;-87
2023/08/17 09:12:12;;;;;;;0.00;0.00;;;;;;;;;;6267313;28;20017;-88
2023/08/17 09:15:12;;;;;;;0.00;0.00;;;;;;;;;;6250901;28;20031;-88
2023/08/17 09:18:12;;;;;;;0.00;0.00;;;;;;;;;;6272933;28;20024;-88
2023/08/17 09:21:25;;;;;;;0.00;0.00;;;;;;;;;;6271000;28;20027;-89
2023/08/17 09:24:33;;;;;;;0.00;0.00;;;;;;;;;;6271010;28;20430;-88
2023/08/17 09:27:33;;;;;;;0.00;0.00;;;;;;;;;;6270133;28;20021;-90
2023/08/17 09:30:34;;;;;;;0.00;0.00;;;;;;;;;;6270833;28;20021;-88
2023/08/17 09:33:35;;;;;;;0.00;0.00;;;;;;;;;;6267788;28;20074;-87
2023/08/17 09:36:36;;;;;;;0.00;0.00;;;;;;;;;;6270925;28;20029;-88
2023/08/17 09:39:36;;;;;;;0.00;0.00;;;;;;;;;;6270883;28;20025;-88
2023/08/17 09:42:38;;;;;;;0.00;0.00;;;;;;;;;;6264100;28;20029;-88
2023/08/17 09:45:39;;;;;;;0.00;0.00;;;;;;;;;;6271886;28;20032;-87
2023/08/17 09:48:39;;;;;;;0.00;0.00;;;;;;;;;;6275641;28;20379;-88
2023/08/17 09:51:43;;;;;;;0.00;0.00;;;;;;;;;;6268652;28;20506;-88
2023/08/17 09:54:45;;;;;;;0.00;0.00;;;;;;;;;;6269251;28;20442;-87
2023/08/17 09:57:45;;;;;;;0.00;0.00;;;;;;;;;;6270392;28;20341;-86
2023/08/17 10:00:49;;;;;;;0.00;0.00;;;;;;;;;;6269478;28;20391;-87
2023/08/17 10:03:49;;;;;;;0.00;0.00;;;;;;;;;;6268290;28;20120;-88
2023/08/17 10:06:58;;;;;;;0.00;0.00;;;;;;;;;;6269913;28;20009;-86
2023/08/17 10:10:04;;;;;;;0.00;0.00;;;;;;;;;;6264718;28;20029;-87
2023/08/17 10:13:08;;;;;;;0.00;0.00;;;;;;;;;;6269006;28;20476;-87
2023/08/17 10:16:26;;;;;;;0.00;0.00;;;;;;;;;;6256752;28;20357;-87
2023/08/17 10:19:29;;;;;;;0.00;0.00;;;;;;;;;;6263993;28;20027;-74
2023/08/17 10:22:42;;;;;;;0.00;0.00;;;;;;;;;;6270034;28;20084;-74
2023/08/17 10:25:43;;;;;;;0.00;0.00;;;;;;;;;;6260546;28;20029;-74
2023/08/17 10:28:44;;;;;;;0.00;0.00;;;;;;;;;;6265597;28;20488;-74
2023/08/17 10:31:47;;;;;;;0.00;0.00;;;;;;;;;;6270206;28;20040;-74
2023/08/17 10:34:48;;;;;;;0.00;0.00;;;;;;;;;;6249080;28;20046;-74
2023/08/17 10:37:48;;;;;;;0.00;0.00;;;;;;;;;;6265015;28;20108;-74
2023/08/17 10:41:07;;;;;;;0.00;0.00;;;;;;;;;;6267444;28;20383;-74
2023/08/17 10:44:07;;;;;;;0.00;0.00;;;;;;;;;;6269401;28;20021;-74
2023/08/17 10:47:27;;;;;;;0.00;0.00;;;;;;;;;;6268247;28;20147;-74
2023/08/17 10:50:27;;;;;;;0.00;0.00;;;;;;;;;;6266973;28;20045;-74
2023/08/17 10:53:33;;;;;;;0.00;0.00;;;;;;;;;;6266920;28;20116;-74
2023/08/17 10:56:33;;;;;;;0.00;0.00;;;;;;;;;;6268040;28;20106;-74
2023/08/17 10:59:33;;;;;;;0.00;0.00;;;;;;;;;;6265742;28;20562;-74
2023/08/17 11:02:34;;;;;;;0.00;0.00;;;;;;;;;;6264196;28;20535;-74
2023/08/17 11:05:46;;;;;;;0.00;0.00;;;;;;;;;;6267407;28;20033;-74
2023/08/17 11:08:54;;;;;;;0.00;0.00;;;;;;;;;;6264949;28;20021;-73
2023/08/17 11:11:57;;;;;;;0.00;0.00;;;;;;;;;;6271634;28;20382;-74
2023/08/17 11:14:59;;;;;;;0.00;0.00;;;;;;;;;;6268575;28;20079;-74
2023/08/17 11:17:59;;;;;;;0.00;0.00;;;;;;;;;;6269078;28;20024;-74
2023/08/17 11:21:00;;;;;;;0.00;0.00;;;;;;;;;;6261559;28;20694;-74
2023/08/17 11:24:00;;;;;;;0.00;0.00;;;;;;;;;;6266791;28;20025;-74
2023/08/17 11:27:00;;;;;;;0.00;0.00;;;;;;;;;;6268786;28;20124;-74
2023/08/17 11:30:01;;;;;;;0.00;0.00;;;;;;;;;;6265385;28;20255;-74
2023/08/17 11:33:01;;;;;;;0.00;0.00;;;;;;;;;;6267878;28;20009;-74
2023/08/17 11:36:03;;;;;;;0.00;0.00;;;;;;;;;;6266908;28;20020;-73
2023/08/17 11:39:03;;;;;;;0.00;0.00;;;;;;;;;;6266812;28;20020;-73
2023/08/17 11:42:03;;;;;;;;;;;;;;;;;;6267664;28;20515;-74
2023/08/17 11:45:04;;;;;;;0.00;0.00;;;;;;;;;;6267030;28;20355;-73
2023/08/17 11:48:04;;;;;;;;;;;;;;;;;;6267674;28;20518;-73
2023/08/17 11:51:05;;;;;;;0.00;0.00;;;;;;;;;;6266638;28;20401;-73
2023/08/17 11:54:07;;;;;;;0.00;0.00;;;;;;;;;;6264664;28;20012;-73
2023/08/17 11:57:07;;;;;;;0.00;0.00;;;;;;;;;;6266182;28;20384;-73
2023/08/17 12:00:12;;;;;;;0.00;0.00;;;;;;;;;;6266372;28;20025;-73
2023/08/17 12:03:15;;;;;;;0.00;0.00;;;;;;;;;;6266992;28;20059;-73
2023/08/17 12:06:16;;;;;;;0.00;0.00;;;;;;;;;;6265441;28;20104;-73
2023/08/17 12:09:17;;;;;;;0.00;0.00;;;;;;;;;;6260564;28;20025;-73
2023/08/17 12:12:18;;;;;;;0.00;0.00;;;;;;;;;;6268902;28;20343;-73
2023/08/17 12:15:19;;;;;;;0.00;0.00;;;;;;;;;;6253652;28;20037;-73
2023/08/17 12:18:20;;;;;;;0.00;0.00;;;;;;;;;;6264132;28;20068;-73
2023/08/17 12:21:21;;;;;;;0.00;0.00;;;;;;;;;;6263170;28;20079;-74
2023/08/17 12:24:22;;;;;;;;;;;;;;;;;;6258118;28;20021;-73
2023/08/17 12:27:23;;;;;;;0.00;0.00;;;;;;;;;;6267462;28;19908;-74
2023/08/17 12:30:23;;;;;;;;;;;;;;;;;;6261719;28;20033;-73
2023/08/17 12:33:23;;;;;;;0.00;0.00;;;;;;;;;;6267474;28;19916;-73
2023/08/17 12:36:24;;;;;;;0.00;0.00;;;;;;;;;;6265100;28;20028;-89
2023/08/17 12:39:24;;;;;;;0.00;0.00;;;;;;;;;;6265430;28;20029;-89
2023/08/17 12:42:24;;;;;;;0.00;0.00;;;;;;;;;;6267131;28;20089;-88
2023/08/17 12:45:24;;;;;;;0.00;0.00;;;;;;;;;;6266623;28;20021;-88
2023/08/17 12:48:24;;;;;;;0.00;0.00;;;;;;;;;;6271388;28;20495;-88
2023/08/17 12:51:25;;;;;;;0.00;0.00;;;;;;;;;;6278166;28;20470;-88
2023/08/17 12:54:25;;;;;;;0.00;0.00;;;;;;;;;;6305706;28;20017;-89
2023/08/17 12:57:26;;;;;;;0.00;0.00;;;;;;;;;;6304705;28;20005;-89
2023/08/17 13:00:26;;;;;;;0.00;0.00;;;;;;;;;;6304971;28;20020;-88
2023/08/17 13:03:27;;;;;;;0.00;0.00;;;;;;;;;;6294033;28;20037;-89
2023/08/17 13:06:27;;;;;;;0.00;0.00;;;;;;;;;;6294408;28;20203;-89
2023/08/17 13:09:27;;;;;;;0.00;0.00;;;;;;;;;;6279795;28;20024;-90
2023/08/17 13:12:27;;;;;;;0.00;0.00;;;;;;;;;;6276905;28;20023;-89
2023/08/17 13:15:28;;;;;;;0.00;0.00;;;;;;;;;;6273262;28;20048;-90
2023/08/17 13:18:28;;;;;;;0.00;0.00;;;;;;;;;;6272910;28;20546;-90
2023/08/17 13:21:28;;;;;;;0.00;0.00;;;;;;;;;;6271473;28;20021;-88
2023/08/17 13:24:29;;;;;;;0.00;0.00;;;;;;;;;;6271991;28;20051;-89
2023/08/17 13:27:29;;;;;;;0.00;0.00;;;;;;;;;;6253251;28;20051;-89
2023/08/17 13:30:29;;;;;;;0.00;0.00;;;;;;;;;;6276987;28;20032;-89
2023/08/17 13:33:29;;;;;;;0.00;0.00;;;;;;;;;;6270270;28;20021;-90
2023/08/17 13:36:29;;;;;;;0.00;0.00;;;;;;;;;;6270685;28;20106;-89
2023/08/17 13:39:32;;;;;;;0.00;0.00;;;;;;;;;;6269615;28;20021;-89
2023/08/17 13:42:32;;;;;;;0.00;0.00;;;;;;;;;;6274405;28;20039;-90
2023/08/17 13:45:34;;;;;;;0.00;0.00;;;;;;;;;;6274008;28;20357;-90
2023/08/17 13:48:34;;;;;;;0.00;0.00;;;;;;;;;;6273187;28;20029;-90
2023/08/17 13:51:35;;;;;;;0.00;0.00;;;;;;;;;;6272434;28;20041;-89
2023/08/17 13:54:35;;;;;;;0.00;0.00;;;;;;;;;;6272468;28;20113;-86
2023/08/17 13:57:35;;;;;;;0.00;0.00;;;;;;;;;;6270831;28;20021;-82
2023/08/17 14:00:36;;;;;;;0.00;0.00;;;;;;;;;;6269808;28;20104;-85
2023/08/17 14:03:36;;;;;;;0.00;0.00;;;;;;;;;;6252504;28;20071;-83
2023/08/17 14:06:36;;;;;;;0.00;0.00;;;;;;;;;;6269858;28;20013;-85
2023/08/17 14:09:37;;;;;;;0.00;0.00;;;;;;;;;;6270654;28;20017;-88
2023/08/17 14:12:37;;;;;;;0.00;0.00;;;;;;;;;;6257748;28;20013;-89
2023/08/17 14:15:37;;;;;;;0.00;0.00;;;;;;;;;;6273583;28;20059;-89
2023/08/17 14:18:37;;;;;;;0.00;0.00;;;;;;;;;;6259858;28;20021;-90
2023/08/17 14:21:38;;;;;;;0.00;0.00;;;;;;;;;;6271710;28;20479;-91
2023/08/17 14:24:38;;;;;;;0.00;0.00;;;;;;;;;;6279785;28;20025;-89
2023/08/17 14:27:38;;;;;;;0.00;0.00;;;;;;;;;;6298413;28;20096;-91
2023/08/17 14:30:40;;;;;;;0.00;0.00;;;;;;;;;;6285549;28;20021;-88
2023/08/17 14:33:40;;;;;;;0.00;0.00;;;;;;;;;;6288158;28;20036;-92
2023/08/17 14:36:40;;;;;;;0.00;0.00;;;;;;;;;;6290076;28;20016;-91
2023/08/17 14:39:41;;;;;;;0.00;0.00;;;;;;;;;;6282361;28;20017;-90
2023/08/17 14:42:41;;;;;;;0.00;0.00;;;;;;;;;;6287246;28;20017;-89
2023/08/17 14:45:41;;;;;;;0.00;0.00;;;;;;;;;;6281668;28;20055;-89
2023/08/17 14:48:42;;;;;;;0.00;0.00;;;;;;;;;;6276221;28;20417;-88
2023/08/17 14:51:42;;;;;;;0.00;0.00;;;;;;;;;;6254490;28;20597;-88
2023/08/17 14:54:42;;;;;;;0.00;0.00;;;;;;;;;;6245821;28;20079;-88
2023/08/17 14:57:43;;;;;;;0.00;0.00;;;;;;;;;;6264105;28;20265;-89
2023/08/17 15:00:43;;;;;;;0.00;0.00;;;;;;;;;;6267762;28;20016;-89
2023/08/17 15:03:43;;;;;;;0.00;0.00;;;;;;;;;;6251110;28;20052;-89
2023/08/17 15:06:44;;;;;;;0.00;0.00;;;;;;;;;;6263897;28;20070;-90
2023/08/17 15:09:44;;;;;;;0.00;0.00;;;;;;;;;;6272664;28;20113;-89
2023/08/17 15:12:44;;;;;;;0.00;0.00;;;;;;;;;;6266884;28;20032;-89
2023/08/17 15:15:44;;;;;;;0.00;0.00;;;;;;;;;;6267911;28;20078;-89
2023/08/17 15:18:44;;;;;;;0.00;0.00;;;;;;;;;;6250406;28;20455;-89
2023/08/17 15:21:45;;;;;;;0.00;0.00;;;;;;;;;;6268353;28;20526;-90
2023/08/17 15:24:46;;;;;;;0.00;0.00;;;;;;;;;;6254272;28;20028;-89
2023/08/17 15:27:46;;;;;;;0.00;0.00;;;;;;;;;;6268211;28;20642;-89
2023/08/17 15:30:49;;;;;;;0.00;0.00;;;;;;;;;;6263849;28;20086;-89
2023/08/17 15:33:49;;;;;;;0.00;0.00;;;;;;;;;;6247458;28;20522;-89
2023/08/17 15:36:50;;;;;;;0.00;0.00;;;;;;;;;;6265899;28;20013;-88
2023/08/17 15:39:50;;;;;;;0.00;0.00;;;;;;;;;;6259200;28;20040;-89
2023/08/17 15:42:50;;;;;;;0.00;0.00;;;;;;;;;;6266160;28;20060;-89
2023/08/17 15:45:51;;;;;;;0.00;0.00;;;;;;;;;;6258994;28;20051;-88
2023/08/17 15:48:51;;;;;;;0.00;0.00;;;;;;;;;;6272998;28;20035;-89
2023/08/17 15:51:51;;;;;;;0.00;0.00;;;;;;;;;;6242724;28;20053;-89
2023/08/17 15:54:52;;;;;;;0.00;0.00;;;;;;;;;;6241901;28;20028;-89
2023/08/17 15:57:52;;;;;;;0.00;0.00;;;;;;;;;;6241812;28;20021;-88
2023/08/17 16:00:52;;;;;;;0.00;0.00;;;;;;;;;;6239286;28;20272;-89
2023/08/17 16:03:53;;;;;;;0.00;0.00;;;;;;;;;;6239818;28;20480;-90
2023/08/17 16:06:53;;;;;;;0.00;0.00;;;;;;;;;;6241930;28;20024;-90
2023/08/17 16:09:53;;;;;;;0.00;0.00;;;;;;;;;;6239737;28;20527;-89
2023/08/17 16:12:53;;;;;;;0.00;0.00;;;;;;;;;;6243424;28;20017;-89
2023/08/17 16:15:54;;;;;;;0.00;0.00;;;;;;;;;;6241180;28;20085;-88
2023/08/17 16:18:54;;;;;;;0.00;0.00;;;;;;;;;;6238266;28;20021;-89
2023/08/17 16:21:55;;;;;;;0.00;0.00;;;;;;;;;;6233797;28;20042;-89
2023/08/17 16:24:55;;;;;;;0.00;0.00;;;;;;;;;;6245107;28;20080;-89
2023/08/17 16:27:56;;;;;;;0.00;0.00;;;;;;;;;;6240788;28;20014;-88
2023/08/17 16:30:57;;;;;;;0.00;0.00;;;;;;;;;;6240034;28;20040;-89
2023/08/17 16:33:57;;;;;;;0.00;0.00;;;;;;;;;;6249582;28;20155;-89
2023/08/17 16:36:58;;;;;;;0.00;0.00;;;;;;;;;;6252410;28;20025;-90
2023/08/17 16:40:00;;;;;;;0.00;0.00;;;;;;;;;;6244313;28;20029;-91
2023/08/17 16:43:00;;;;;;;0.00;0.00;;;;;;;;;;6249432;28;20575;-90
2023/08/17 16:46:00;;;;;;;0.00;0.00;;;;;;;;;;6242878;28;20017;-89
2023/08/17 16:49:00;;;;;;;0.00;0.00;;;;;;;;;;6252200;28;20022;-89
2023/08/17 16:52:01;;;;;;;0.00;0.00;;;;;;;;;;6247952;28;20532;-91
2023/08/17 16:55:01;;;;;;;0.00;0.00;;;;;;;;;;6244782;28;20048;-90
2023/08/17 16:58:01;;;;;;;0.00;0.00;;;;;;;;;;6248509;28;20028;-88
2023/08/17 17:01:01;;;;;;;0.00;0.00;;;;;;;;;;6249497;28;20037;-90
2023/08/17 17:04:02;;;;;;;0.00;0.00;;;;;;;;;;6241210;28;20503;-90
2023/08/17 17:07:02;;;;;;;0.00;0.00;;;;;;;;;;6246962;28;20045;-90
2023/08/17 17:10:02;;;;;;;0.00;0.00;;;;;;;;;;6256547;28;20041;-87
2023/08/17 17:13:03;;;;;;;0.00;0.00;;;;;;;;;;6247823;28;20452;-89
2023/08/17 17:16:03;;;;;;;0.00;0.00;;;;;;;;;;6248634;28;20109;-83
2023/08/17 17:19:04;;;;;;;0.00;0.00;;;;;;;;;;6247827;28;20400;-85
2023/08/17 17:22:04;;;;;;;0.00;0.00;;;;;;;;;;6245961;28;20021;-87
2023/08/17 17:25:05;;;;;;;0.00;0.00;;;;;;;;;;6266280;28;20089;-87
2023/08/17 17:28:05;;;;;;;0.00;0.00;;;;;;;;;;6237384;28;20044;-87
2023/08/17 17:31:05;;;;;;;0.00;0.00;;;;;;;;;;6277981;28;20032;-88
2023/08/17 17:34:07;;;;;;;0.00;0.00;;;;;;;;;;6262776;28;20025;-89
2023/08/17 17:37:08;;;;;;;0.00;0.00;;;;;;;;;;6247475;28;20014;-89
2023/08/17 17:40:09;;;;;;;0.00;0.00;;;;;;;;;;6249644;28;20112;-88
2023/08/17 17:43:09;;;;;;;0.00;0.00;;;;;;;;;;6250786;28;20040;-89
2023/08/17 17:46:10;;;;;;;0.00;0.00;;;;;;;;;;6243620;28;20104;-88
2023/08/17 17:49:10;;;;;;;0.00;0.00;;;;;;;;;;6240640;28;20111;-88
2023/08/17 17:52:10;;;;;;;0.00;0.00;;;;;;;;;;6247282;28;20078;-88
2023/08/17 17:55:10;;;;;;;0.00;0.00;;;;;;;;;;6227690;28;20048;-89
2023/08/17 17:58:10;;;;;;;0.00;0.00;;;;;;;;;;6245145;28;20144;-89
2023/08/17 18:01:11;;;;;;;0.00;0.00;;;;;;;;;;6244912;28;20029;-88
2023/08/17 18:04:11;;;;;;;0.00;0.00;;;;;;;;;;6237326;28;20486;-88
2023/08/17 18:07:11;;;;;;;0.00;0.00;;;;;;;;;;6239879;28;20022;-88